Hlavní strana
METAR-TAF:

METAR-TAF

Letiště :

Nashville, Tennessee, Spojené státy americké

zeměpisná šířka: 36-07-08N, zeměpisná délka: 086-41-21W, výška: 182 m

Aktuální stav počasí

Zpráva byla vytvořena před 37 minutami, v 09:53 UTC
Jižní vítr 5 kt
Teplota 6°C
Vlhkost vzduchu 81%
Tlak 1020 hPa
Viditelnost: 16.1 km
Jasno

METAR: KBNA 230953Z 19005KT 10SM CLR 06/03 A3013 RMK AO2 SLP202 T00560028

Čas: 05:30 (10:30 UTC)

Předpověď počasí

Zpráva byla vytvořena před 5 hodinami a 8 minutami, v 05:22 UTC
Předpověď platná od 23 v 06 UTC do 24 v 06 UTC
Jihojihozápadní vítr 4 kt
Viditelnost: 10 km
Jasno
Od 23 v 1600 UTC
Jihojihozápadní vítr 7 kt s nárazy do 14 kt
Viditelnost: 10 km
Jasno

TAF: KBNA 230522Z 2306/2406 20004KT P6SM SKC FM231600 20007G14KT P6SM SKC

Stav a předpovědi počasí z více než 4 000 letišť (zprávy METAR a TAF).

Červené a žluté tečky na mapě představují dostupné meteorologické stanice.

Když kurzor umístíte na tečku, zobrazí se název stanice.

Pak kliknutím zobrazíte stav a předpověď počasí.

Chcete-li změnit mapu, kliknutím na zelené tlačítko se znaménkem +mapu přiblížíte, kliknutím na zelené tlačítko se znaménkem – mapu oddálíte a kliknutím na zelené šipky přejdete na sousední mapy.


METAR-TAF: